createdAt,value
2022-10-17T08:21:58.415Z,13.70
2022-10-17T08:24:02.875Z,14.05
2022-10-17T08:26:10.779Z,13.60
2022-10-17T08:28:13.375Z,14.18
2022-10-17T08:30:16.493Z,13.40
2022-10-17T08:32:24.988Z,14.07
2022-10-17T08:34:27.270Z,13.98
2022-10-17T08:36:29.778Z,13.43
2022-10-17T08:38:35.295Z,13.38
2022-10-17T08:40:42.897Z,13.68
2022-10-17T08:42:51.274Z,14.45
2022-10-17T08:45:22.985Z,14.77
2022-10-17T08:47:33.945Z,14.23
2022-10-17T08:49:54.404Z,14.07
2022-10-17T08:52:04.595Z,14.03
2022-10-17T08:54:19.193Z,16.02
2022-10-17T08:56:44.169Z,16.92
2022-10-17T08:58:48.631Z,15.05
2022-10-17T09:01:00.083Z,13.45
2022-10-17T09:03:08.725Z,12.98
2022-10-17T09:05:40.121Z,16.55
2022-10-17T09:07:48.922Z,15.30
2022-10-17T09:10:15.586Z,12.95
2022-10-17T09:12:24.644Z,11.80
2022-10-17T09:14:58.554Z,23.87
2022-10-17T09:17:00.931Z,12.23
2022-10-17T09:19:23.618Z,11.35
2022-10-17T09:21:35.302Z,12.40
2022-10-17T09:24:08.954Z,12.13
2022-10-17T09:26:12.816Z,10.88
2022-10-17T09:28:23.999Z,11.02
2022-10-17T09:30:45.098Z,8.95
2022-10-17T09:32:48.456Z,11.40
2022-10-17T09:34:53.280Z,8.10
2022-10-17T09:36:59.051Z,7.15
2022-10-17T09:39:17.884Z,8.55
2022-10-17T09:41:50.272Z,8.35
2022-10-17T09:43:56.993Z,8.32
2022-10-17T09:46:20.309Z,8.15
2022-10-17T09:48:32.529Z,7.43
2022-10-17T09:50:35.473Z,9.02
2022-10-17T09:52:42.030Z,9.13
2022-10-17T09:54:49.124Z,8.80
2022-10-17T09:56:59.065Z,6.68
2022-10-17T09:59:01.304Z,8.50
2022-10-17T10:01:22.737Z,7.95
2022-10-17T10:03:27.398Z,8.02
2022-10-17T10:05:29.625Z,6.90
2022-10-17T10:07:35.680Z,7.40
2022-10-17T10:09:39.666Z,7.50
2022-10-17T10:11:48.646Z,6.80
2022-10-17T10:13:52.227Z,7.32
2022-10-17T10:16:13.946Z,7.50
2022-10-17T10:18:25.375Z,7.97
2022-10-17T10:20:37.387Z,6.82
2022-10-17T10:22:40.321Z,8.57
2022-10-17T10:24:42.612Z,6.68
2022-10-17T10:26:47.276Z,6.62
2022-10-17T10:28:57.206Z,6.32
2022-10-17T10:31:04.691Z,6.03
2022-10-17T10:33:11.402Z,5.78
2022-10-17T10:35:21.786Z,6.65
2022-10-17T10:37:30.894Z,6.80
2022-10-17T10:39:42.394Z,6.65
2022-10-17T10:41:48.801Z,6.10
2022-10-17T10:43:53.597Z,6.72
2022-10-17T10:45:55.948Z,7.07
2022-10-17T10:47:58.829Z,7.53
2022-10-17T10:50:36.545Z,6.35
2022-10-17T10:52:56.635Z,5.30
2022-10-17T10:55:27.924Z,7.07
2022-10-17T10:57:33.458Z,5.90
2022-10-17T10:59:53.847Z,6.70
2022-10-17T11:01:58.184Z,5.82
2022-10-17T11:04:19.598Z,4.82
2022-10-17T11:06:28.313Z,6.30
2022-10-17T11:08:45.310Z,7.55
2022-10-17T11:11:07.780Z,6.10
2022-10-17T11:13:21.166Z,5.87
2022-10-17T11:15:46.554Z,6.75
2022-10-17T11:18:02.948Z,5.15
2022-10-17T11:20:25.225Z,6.72
2022-10-17T11:22:33.141Z,6.37
2022-10-17T11:24:43.265Z,6.37
2022-10-17T11:26:53.993Z,6.05
2022-10-17T11:29:07.942Z,5.62
2022-10-17T11:31:13.617Z,7.07
2022-10-17T11:33:21.908Z,5.30
2022-10-17T11:35:31.489Z,5.32
2022-10-17T11:37:41.162Z,5.50
2022-10-17T11:40:02.075Z,5.45
2022-10-17T11:42:10.540Z,5.60
2022-10-17T11:44:21.813Z,6.53
2022-10-17T11:46:27.370Z,5.12
2022-10-17T11:48:42.361Z,5.10
2022-10-17T11:53:16.259Z,4.95
2022-10-17T11:55:23.763Z,6.32
2022-10-17T11:57:53.203Z,4.97
2022-10-17T12:00:24.439Z,4.70
2022-10-17T12:02:36.782Z,5.18
2022-10-17T12:05:07.818Z,5.70
2022-10-17T12:07:12.986Z,4.68
2022-10-17T12:09:30.706Z,4.82
2022-10-17T12:11:35.961Z,4.37
2022-10-17T12:13:38.091Z,4.72
2022-10-17T12:15:46.543Z,4.12
2022-10-17T12:17:56.504Z,5.07
2022-10-17T12:20:26.317Z,4.30
2022-10-17T12:22:28.962Z,4.62
2022-10-17T12:24:39.603Z,4.82
2022-10-17T12:26:42.128Z,4.80
2022-10-17T12:28:46.403Z,4.85
2022-10-17T12:30:56.680Z,5.37
2022-10-17T12:33:23.682Z,4.53
2022-10-17T12:35:28.516Z,4.30
2022-10-17T12:37:44.640Z,5.00
2022-10-17T12:39:46.877Z,5.57
2022-10-17T12:41:49.902Z,6.53
2022-10-17T12:43:54.484Z,5.28
2022-10-17T12:46:08.544Z,5.03
2022-10-17T12:48:11.094Z,4.53
2022-10-17T12:51:17.740Z,4.50
2022-10-17T12:53:26.041Z,4.32
2022-10-17T12:55:29.186Z,4.80
2022-10-17T12:57:41.574Z,4.93
2022-10-17T12:59:45.080Z,4.05
2022-10-17T13:01:51.589Z,4.62
2022-10-17T13:03:55.067Z,3.47
2022-10-17T13:06:05.089Z,3.85
2022-10-17T13:08:15.236Z,4.27
2022-10-17T13:10:24.509Z,5.62
2022-10-17T13:12:28.557Z,4.90
2022-10-17T13:14:32.994Z,4.97
2022-10-17T13:16:38.502Z,5.25
2022-10-17T13:18:41.408Z,3.85
2022-10-17T13:20:43.697Z,4.53
2022-10-17T13:22:46.200Z,4.78
2022-10-17T13:24:51.097Z,4.87
2022-10-17T13:26:55.687Z,4.45
2022-10-17T13:29:12.688Z,4.95
2022-10-17T13:31:35.740Z,3.90
2022-10-17T13:33:40.534Z,4.65
2022-10-17T13:35:59.556Z,4.68
2022-10-17T13:38:09.460Z,4.60
2022-10-17T13:40:40.885Z,4.85
2022-10-17T13:42:45.647Z,5.05
2022-10-17T13:44:48.794Z,7.22
2022-10-17T13:46:52.256Z,7.53
2022-10-17T13:48:54.654Z,4.68
2022-10-17T13:51:02.852Z,8.57
2022-10-17T13:53:36.618Z,10.10
2022-10-17T13:55:39.093Z,3.75
2022-10-17T13:57:41.834Z,5.68
2022-10-17T13:59:47.783Z,4.95
2022-10-17T14:01:52.165Z,5.47
2022-10-17T14:04:07.966Z,4.78
2022-10-17T14:06:20.463Z,5.80
2022-10-17T14:08:23.816Z,5.30
2022-10-17T14:10:40.182Z,3.95
2022-10-17T14:12:43.407Z,5.12
2022-10-17T14:15:09.698Z,5.18
2022-10-17T14:17:15.224Z,10.68
2022-10-17T14:19:31.275Z,4.22
2022-10-17T14:21:43.919Z,5.03
2022-10-17T14:23:47.551Z,4.30
2022-10-17T14:26:05.984Z,4.40
2022-10-17T14:28:14.295Z,4.93
2022-10-17T14:30:51.812Z,5.28
2022-10-17T14:32:48.338Z,4.50
2022-10-17T14:35:01.534Z,5.70
2022-10-17T14:37:11.441Z,6.70
2022-10-17T14:39:23.586Z,5.90
2022-10-17T14:41:44.760Z,7.43
2022-10-17T14:44:02.925Z,6.53
2022-10-17T14:46:05.445Z,6.40
2022-10-17T14:48:14.578Z,4.60
2022-10-17T14:50:32.418Z,10.38
2022-10-17T14:52:35.776Z,7.25
2022-10-17T14:54:38.480Z,6.40
2022-10-17T14:56:42.752Z,10.82
2022-10-17T14:58:45.213Z,4.75
2022-10-17T15:00:47.476Z,4.97
2022-10-17T15:02:52.556Z,5.25
2022-10-17T15:04:55.130Z,6.53
2022-10-17T15:06:57.541Z,4.75
2022-10-17T15:09:00.747Z,4.30
2022-10-17T15:11:03.020Z,4.50
2022-10-17T15:15:30.161Z,6.35
2022-10-17T15:17:34.621Z,5.78
2022-10-17T15:19:36.891Z,5.93
2022-10-17T15:21:44.698Z,5.07
2022-10-17T15:23:50.336Z,4.80
2022-10-17T15:25:52.587Z,5.30
2022-10-17T15:27:56.334Z,5.20
2022-10-17T15:29:58.774Z,15.57
2022-10-17T15:32:00.992Z,9.82
2022-10-17T15:34:03.933Z,9.90
2022-10-17T15:36:18.479Z,6.15
2022-10-17T15:38:20.688Z,5.78
2022-10-17T15:40:28.565Z,6.28
2022-10-17T15:42:31.344Z,5.12
2022-10-17T15:44:33.697Z,6.47
2022-10-17T15:46:36.495Z,5.50
2022-10-17T15:48:39.153Z,7.57
2022-10-17T15:50:41.719Z,6.62
2022-10-17T15:52:44.260Z,7.53
2022-10-17T15:54:46.524Z,7.30
2022-10-17T15:56:54.556Z,8.40
2022-10-17T15:58:58.221Z,6.43
2022-10-17T16:01:00.762Z,7.78
2022-10-17T16:03:03.305Z,8.75
2022-10-17T16:05:13.905Z,7.30
2022-10-17T16:07:17.604Z,6.62
2022-10-17T16:09:20.146Z,6.80
2022-10-17T16:11:40.731Z,12.30
2022-10-17T16:13:46.970Z,8.35
2022-10-17T16:15:49.730Z,6.32
2022-10-17T16:17:53.930Z,7.05
2022-10-17T16:19:56.268Z,5.90
2022-10-17T16:22:04.285Z,6.15
2022-10-17T16:24:09.727Z,7.60
2022-10-17T16:26:15.885Z,7.25
2022-10-17T16:28:18.642Z,6.72
2022-10-17T16:32:30.068Z,7.12
2022-10-17T16:34:32.803Z,6.50
2022-10-17T16:36:35.324Z,5.95
2022-10-17T16:38:37.584Z,6.78
2022-10-17T16:40:40.402Z,6.75
2022-10-17T16:42:43.040Z,6.00
2022-10-17T16:44:45.328Z,6.90
2022-10-17T16:46:47.871Z,7.40
2022-10-17T16:48:50.612Z,8.35
2022-10-17T16:50:52.838Z,6.65
2022-10-17T16:52:55.426Z,6.85
2022-10-17T16:54:58.088Z,6.65
2022-10-17T16:57:00.915Z,6.70
2022-10-17T16:59:04.279Z,7.10
2022-10-17T17:01:12.486Z,7.28
2022-10-17T17:03:14.817Z,6.72
2022-10-17T17:05:17.562Z,6.90
2022-10-17T17:07:21.301Z,6.97
2022-10-17T17:09:24.176Z,7.85
2022-10-17T17:11:28.398Z,7.68
2022-10-17T17:13:30.637Z,7.10
2022-10-17T17:15:32.941Z,7.07
2022-10-17T17:17:55.688Z,8.88
2022-10-17T17:19:58.795Z,9.10
2022-10-17T17:22:04.119Z,8.52
2022-10-17T17:24:07.200Z,8.23
2022-10-17T17:26:12.868Z,8.90
2022-10-17T17:28:15.155Z,7.90
2022-10-17T17:30:18.400Z,9.77
2022-10-17T17:32:20.784Z,8.88
2022-10-17T17:34:23.235Z,7.47
2022-10-17T17:36:30.591Z,12.60
2022-10-17T17:38:35.404Z,6.82
2022-10-17T17:40:49.637Z,9.13
2022-10-17T17:42:53.883Z,8.98
2022-10-17T17:44:56.612Z,9.45
2022-10-17T17:46:59.089Z,9.60
2022-10-17T17:49:02.040Z,8.50
2022-10-17T17:51:05.931Z,11.38
2022-10-17T17:53:09.574Z,9.13
2022-10-17T17:55:15.170Z,9.63
2022-10-17T17:57:17.527Z,10.15
2022-10-17T17:59:20.171Z,9.82
2022-10-17T18:01:27.455Z,8.73
2022-10-17T18:03:30.043Z,9.48
2022-10-17T18:05:32.614Z,7.70
2022-10-17T18:07:38.340Z,7.75
2022-10-17T18:09:41.325Z,8.35
2022-10-17T18:11:43.860Z,8.65
2022-10-17T18:13:48.379Z,11.07
2022-10-17T18:15:52.394Z,9.95
2022-10-17T18:17:55.233Z,10.20
2022-10-17T18:19:58.687Z,9.30
2022-10-17T18:22:01.787Z,9.60
2022-10-17T18:24:04.968Z,9.23
2022-10-17T18:26:08.479Z,9.70
2022-10-17T18:28:11.227Z,13.18
2022-10-17T18:30:15.228Z,9.18
2022-10-17T18:32:18.213Z,9.65
2022-10-17T18:34:21.465Z,9.73
2022-10-17T18:36:26.174Z,10.23
2022-10-17T18:38:28.854Z,9.65
2022-10-17T18:40:32.061Z,10.43
2022-10-17T18:42:34.662Z,10.07
2022-10-17T18:44:37.312Z,9.90
2022-10-17T18:46:41.797Z,9.13
2022-10-17T18:48:46.030Z,9.55
2022-10-17T18:50:48.771Z,9.35
2022-10-17T18:52:52.037Z,8.57
2022-10-17T18:54:55.876Z,10.00
2022-10-17T18:56:58.695Z,9.35
2022-10-17T18:59:01.906Z,12.57
2022-10-17T19:01:06.774Z,9.75
2022-10-17T19:03:09.607Z,9.13
2022-10-17T19:05:12.635Z,9.60
2022-10-17T19:07:17.473Z,9.13
2022-10-17T19:09:20.546Z,10.13
2022-10-17T19:11:25.437Z,9.18
2022-10-17T19:13:27.682Z,10.77
2022-10-17T19:15:29.967Z,9.88
2022-10-17T19:17:32.790Z,11.52
2022-10-17T19:19:35.926Z,9.77
2022-10-17T19:21:38.501Z,10.55
2022-10-17T19:23:42.073Z,10.05
2022-10-17T19:25:44.533Z,9.60
2022-10-17T19:27:47.193Z,12.85
2022-10-17T19:29:49.773Z,11.40
2022-10-17T19:31:52.551Z,11.70
2022-10-17T19:33:56.144Z,9.52
2022-10-17T19:36:08.035Z,9.93
2022-10-17T19:38:10.812Z,10.20
2022-10-17T19:40:13.641Z,9.52
2022-10-17T19:42:16.556Z,11.27
2022-10-17T19:44:18.962Z,10.10
2022-10-17T19:46:23.410Z,10.10
2022-10-17T19:48:26.829Z,10.57
2022-10-17T19:50:29.509Z,9.93
2022-10-17T19:52:32.265Z,9.55
2022-10-17T19:54:35.115Z,10.70
2022-10-17T19:56:38.293Z,12.93
2022-10-17T19:58:46.818Z,13.18
2022-10-17T20:00:52.417Z,10.50
2022-10-17T20:02:55.016Z,10.27
2022-10-17T20:05:13.895Z,8.98
2022-10-17T20:07:19.576Z,10.05
2022-10-17T20:09:22.495Z,10.77
2022-10-17T20:11:27.594Z,10.13
2022-10-17T20:13:30.015Z,9.88
2022-10-17T20:15:32.744Z,10.25
2022-10-17T20:19:42.522Z,9.82
2022-10-17T20:21:45.662Z,9.77
2022-10-17T20:23:48.040Z,10.52
2022-10-17T20:26:07.923Z,10.00
2022-10-17T20:28:21.514Z,10.35
2022-10-17T20:30:23.723Z,11.35
2022-10-17T20:32:25.902Z,11.27
2022-10-17T20:34:28.614Z,12.40
2022-10-17T20:36:31.140Z,9.82
2022-10-17T20:38:33.618Z,11.00
2022-10-17T20:40:36.646Z,10.40
2022-10-17T20:42:38.897Z,11.38
2022-10-17T20:44:41.343Z,13.27
2022-10-17T20:46:57.632Z,10.50
2022-10-17T20:49:05.685Z,10.15
2022-10-17T20:51:09.186Z,10.60
2022-10-17T20:53:36.130Z,9.77
2022-10-17T20:55:34.704Z,10.27
2022-10-17T20:57:38.068Z,10.95
2022-10-17T20:59:40.603Z,9.77
2022-10-17T21:01:43.772Z,10.15
2022-10-17T21:03:46.838Z,11.80
2022-10-17T21:05:49.407Z,10.70
2022-10-17T21:07:51.687Z,11.77
2022-10-17T21:09:53.955Z,11.80
2022-10-17T21:11:57.100Z,11.52
2022-10-17T21:14:05.233Z,11.60
2022-10-17T21:16:09.791Z,11.07
2022-10-17T21:18:12.605Z,10.30
2022-10-17T21:20:15.400Z,10.70
2022-10-17T21:22:18.072Z,11.10
2022-10-17T21:24:20.975Z,10.30
2022-10-17T21:26:23.391Z,10.55
2022-10-17T21:28:25.736Z,12.50
2022-10-17T21:30:28.232Z,11.48
2022-10-17T21:32:47.355Z,10.70
2022-10-17T21:34:52.700Z,11.40
2022-10-17T21:36:56.124Z,10.50
2022-10-17T21:38:58.656Z,11.18
2022-10-17T21:41:00.959Z,10.82
2022-10-17T21:43:03.552Z,10.73
2022-10-17T21:45:15.423Z,10.48
2022-10-17T21:47:18.272Z,11.25
2022-10-17T21:49:23.080Z,11.38
